Terminal Aerodrome Forecast
Issued by NWS

Home | Current Version | Previous Version | Text Only | Print | Product List | Glossary On
Versions: 1 2 3 4 5 6 7 8 9 10 11 12 13 14 15 16
779
FTUS42 KMHX 291138
TAFISO
TAF
KISO 291138Z 2912/3012 02005KT P6SM BKN250
     FM291400 02007KT P6SM SCT015
     FM291700 04010KT P6SM SCT025
     FM300000 05004KT P6SM FEW150
      AMD LTD TO CLD VIS AND WIND=

USA.gov is the U.S. government's official web portal to all federal, state and local government web resources and services.